sensor_id;sensor_type;location;lat;lon;timestamp;P1;durP1;ratioP1;P2;durP2;ratioP2
25980;SDS011;13772;52.996;9.124;2022-08-01T09:11:12;10.15;;;2.72;;
25980;SDS011;13772;52.996;9.124;2022-08-01T09:13:38;12.48;;;2.80;;
25980;SDS011;13772;52.996;9.124;2022-08-01T09:16:03;16.88;;;3.10;;
25980;SDS011;13772;52.996;9.124;2022-08-01T09:18:33;17.83;;;3.38;;
25980;SDS011;13772;52.996;9.124;2022-08-01T09:23:31;13.77;;;2.92;;
25980;SDS011;13772;52.996;9.124;2022-08-01T09:25:56;15.30;;;3.15;;
25980;SDS011;13772;52.996;9.124;2022-08-01T09:28:26;13.55;;;3.30;;
25980;SDS011;13772;52.996;9.124;2022-08-01T09:30:51;15.55;;;3.40;;
25980;SDS011;13772;52.996;9.124;2022-08-01T09:33:17;14.13;;;2.60;;
25980;SDS011;13772;52.996;9.124;2022-08-01T09:35:42;10.93;;;2.80;;
25980;SDS011;13772;52.996;9.124;2022-08-01T09:38:22;12.57;;;2.55;;
25980;SDS011;13772;52.996;9.124;2022-08-01T09:40:55;12.00;;;2.60;;
25980;SDS011;13772;52.996;9.124;2022-08-01T09:43:21;13.45;;;2.38;;
25980;SDS011;13772;52.996;9.124;2022-08-01T09:45:47;12.93;;;2.25;;
25980;SDS011;13772;52.996;9.124;2022-08-01T09:48:12;11.73;;;2.60;;
25980;SDS011;13772;52.996;9.124;2022-08-01T09:50:45;11.73;;;2.25;;
25980;SDS011;13772;52.996;9.124;2022-08-01T09:53:10;13.30;;;2.33;;
25980;SDS011;13772;52.996;9.124;2022-08-01T09:55:37;18.10;;;2.75;;
25980;SDS011;13772;52.996;9.124;2022-08-01T09:58:02;12.80;;;2.35;;
25980;SDS011;13772;52.996;9.124;2022-08-01T10:00:29;13.48;;;2.92;;
25980;SDS011;13772;52.996;9.124;2022-08-01T10:02:54;11.77;;;2.33;;
25980;SDS011;13772;52.996;9.124;2022-08-01T10:05:29;11.75;;;2.38;;
25980;SDS011;13772;52.996;9.124;2022-08-01T10:07:56;7.95;;;2.17;;
25980;SDS011;13772;52.996;9.124;2022-08-01T10:10:21;8.48;;;2.30;;
25980;SDS011;13772;52.996;9.124;2022-08-01T10:12:46;10.88;;;2.08;;
25980;SDS011;13772;52.996;9.124;2022-08-01T10:15:16;12.10;;;2.42;;
25980;SDS011;13772;52.996;9.124;2022-08-01T10:17:44;10.30;;;2.40;;
25980;SDS011;13772;52.996;9.124;2022-08-01T10:20:11;9.52;;;2.47;;
25980;SDS011;13772;52.996;9.124;2022-08-01T10:22:37;13.25;;;2.78;;
25980;SDS011;13772;52.996;9.124;2022-08-01T10:25:03;9.88;;;2.00;;
25980;SDS011;13772;52.996;9.124;2022-08-01T10:27:29;12.15;;;2.28;;
25980;SDS011;13772;52.996;9.124;2022-08-01T10:30:01;14.57;;;2.15;;
25980;SDS011;13772;52.996;9.124;2022-08-01T10:32:32;13.65;;;2.03;;
25980;SDS011;13772;52.996;9.124;2022-08-01T10:34:58;10.80;;;2.33;;
25980;SDS011;13772;52.996;9.124;2022-08-01T10:37:23;9.18;;;2.25;;
25980;SDS011;13772;52.996;9.124;2022-08-01T10:39:49;10.82;;;1.70;;
25980;SDS011;13772;52.996;9.124;2022-08-01T10:42:15;8.02;;;2.03;;
25980;SDS011;13772;52.996;9.124;2022-08-01T10:44:41;9.25;;;1.88;;
25980;SDS011;13772;52.996;9.124;2022-08-01T10:47:09;7.60;;;1.80;;
25980;SDS011;13772;52.996;9.124;2022-08-01T10:49:34;7.43;;;1.50;;
25980;SDS011;13772;52.996;9.124;2022-08-01T10:52:01;7.03;;;1.55;;
25980;SDS011;13772;52.996;9.124;2022-08-01T10:54:27;10.15;;;2.05;;
25980;SDS011;13772;52.996;9.124;2022-08-01T10:56:52;10.30;;;1.98;;
25980;SDS011;13772;52.996;9.124;2022-08-01T11:01:55;9.15;;;1.83;;
25980;SDS011;13772;52.996;9.124;2022-08-01T11:04:22;8.43;;;2.00;;
25980;SDS011;13772;52.996;9.124;2022-08-01T11:07:03;7.05;;;1.73;;
25980;SDS011;13772;52.996;9.124;2022-08-01T11:09:38;10.63;;;2.22;;
25980;SDS011;13772;52.996;9.124;2022-08-01T11:12:10;11.88;;;1.92;;
25980;SDS011;13772;52.996;9.124;2022-08-01T11:17:30;6.43;;;1.45;;
25980;SDS011;13772;52.996;9.124;2022-08-01T11:20:09;7.70;;;1.75;;
25980;SDS011;13772;52.996;9.124;2022-08-01T11:25:18;7.13;;;1.55;;
25980;SDS011;13772;52.996;9.124;2022-08-01T11:27:43;8.23;;;1.80;;
25980;SDS011;13772;52.996;9.124;2022-08-01T11:32:47;5.80;;;1.30;;
25980;SDS011;13772;52.996;9.124;2022-08-01T11:35:12;4.45;;;1.27;;
25980;SDS011;13772;52.996;9.124;2022-08-01T11:37:38;5.85;;;1.67;;
25980;SDS011;13772;52.996;9.124;2022-08-01T11:42:41;11.18;;;2.35;;
25980;SDS011;13772;52.996;9.124;2022-08-01T11:45:06;6.22;;;1.73;;
25980;SDS011;13772;52.996;9.124;2022-08-01T11:47:50;6.60;;;1.42;;
25980;SDS011;13772;52.996;9.124;2022-08-01T11:50:31;6.30;;;1.40;;
25980;SDS011;13772;52.996;9.124;2022-08-01T11:52:57;7.20;;;1.35;;
25980;SDS011;13772;52.996;9.124;2022-08-01T11:55:22;7.10;;;1.35;;
25980;SDS011;13772;52.996;9.124;2022-08-01T11:57:48;5.40;;;1.65;;
25980;SDS011;13772;52.996;9.124;2022-08-01T12:00:14;6.68;;;1.58;;
25980;SDS011;13772;52.996;9.124;2022-08-01T12:02:40;7.82;;;1.60;;
25980;SDS011;13772;52.996;9.124;2022-08-01T12:05:09;6.82;;;1.38;;
25980;SDS011;13772;52.996;9.124;2022-08-01T12:07:35;9.75;;;1.70;;
25980;SDS011;13772;52.996;9.124;2022-08-01T12:12:29;5.60;;;1.50;;
25980;SDS011;13772;52.996;9.124;2022-08-01T12:14:55;9.23;;;2.08;;
25980;SDS011;13772;52.996;9.124;2022-08-01T12:17:28;7.82;;;1.85;;
25980;SDS011;13772;52.996;9.124;2022-08-01T12:19:53;7.95;;;1.70;;
25980;SDS011;13772;52.996;9.124;2022-08-01T12:22:20;7.82;;;1.67;;
25980;SDS011;13772;52.996;9.124;2022-08-01T12:24:46;6.87;;;1.67;;
25980;SDS011;13772;52.996;9.124;2022-08-01T12:27:11;8.35;;;1.83;;
25980;SDS011;13772;52.996;9.124;2022-08-01T12:29:48;7.70;;;1.30;;
25980;SDS011;13772;52.996;9.124;2022-08-01T12:32:24;6.43;;;1.42;;
25980;SDS011;13772;52.996;9.124;2022-08-01T12:34:50;6.38;;;1.45;;
25980;SDS011;13772;52.996;9.124;2022-08-01T12:37:15;6.80;;;1.42;;
25980;SDS011;13772;52.996;9.124;2022-08-01T12:39:41;4.65;;;1.40;;
25980;SDS011;13772;52.996;9.124;2022-08-01T12:42:07;7.53;;;1.73;;
25980;SDS011;13772;52.996;9.124;2022-08-01T12:44:32;7.30;;;1.55;;
25980;SDS011;13772;52.996;9.124;2022-08-01T12:46:57;7.03;;;1.33;;
25980;SDS011;13772;52.996;9.124;2022-08-01T12:49:23;7.15;;;1.77;;
25980;SDS011;13772;52.996;9.124;2022-08-01T12:51:48;5.95;;;1.52;;
25980;SDS011;13772;52.996;9.124;2022-08-01T12:54:14;6.10;;;1.60;;
25980;SDS011;13772;52.996;9.124;2022-08-01T12:56:39;9.00;;;1.33;;
25980;SDS011;13772;52.996;9.124;2022-08-01T12:59:20;8.47;;;1.60;;
25980;SDS011;13772;52.996;9.124;2022-08-01T13:01:46;5.57;;;1.40;;
25980;SDS011;13772;52.996;9.124;2022-08-01T13:04:12;8.55;;;1.50;;
25980;SDS011;13772;52.996;9.124;2022-08-01T13:06:37;6.20;;;1.48;;
25980;SDS011;13772;52.996;9.124;2022-08-01T13:09:06;8.50;;;2.00;;
25980;SDS011;13772;52.996;9.124;2022-08-01T13:11:31;5.95;;;1.48;;
25980;SDS011;13772;52.996;9.124;2022-08-01T13:13:56;6.00;;;1.77;;
25980;SDS011;13772;52.996;9.124;2022-08-01T13:16:23;7.38;;;1.60;;
25980;SDS011;13772;52.996;9.124;2022-08-01T13:18:49;6.18;;;1.40;;
25980;SDS011;13772;52.996;9.124;2022-08-01T13:21:36;8.23;;;1.52;;
25980;SDS011;13772;52.996;9.124;2022-08-01T13:29:04;4.78;;;1.20;;
25980;SDS011;13772;52.996;9.124;2022-08-01T13:31:33;6.70;;;1.42;;
25980;SDS011;13772;52.996;9.124;2022-08-01T13:33:58;6.63;;;1.48;;
25980;SDS011;13772;52.996;9.124;2022-08-01T13:36:24;6.90;;;1.65;;
25980;SDS011;13772;52.996;9.124;2022-08-01T13:38:52;7.57;;;1.25;;
25980;SDS011;13772;52.996;9.124;2022-08-01T13:41:35;7.47;;;1.52;;
25980;SDS011;13772;52.996;9.124;2022-08-01T13:44:00;5.60;;;1.20;;
25980;SDS011;13772;52.996;9.124;2022-08-01T13:46:26;6.35;;;1.70;;
25980;SDS011;13772;52.996;9.124;2022-08-01T13:48:51;8.68;;;1.70;;
25980;SDS011;13772;52.996;9.124;2022-08-01T13:51:16;4.88;;;1.52;;
25980;SDS011;13772;52.996;9.124;2022-08-01T13:53:41;7.80;;;1.63;;
25980;SDS011;13772;52.996;9.124;2022-08-01T13:56:07;7.07;;;1.47;;
25980;SDS011;13772;52.996;9.124;2022-08-01T13:58:32;6.60;;;1.47;;
25980;SDS011;13772;52.996;9.124;2022-08-01T14:00:57;6.73;;;1.30;;
25980;SDS011;13772;52.996;9.124;2022-08-01T14:03:22;6.13;;;1.30;;
25980;SDS011;13772;52.996;9.124;2022-08-01T14:05:47;6.63;;;1.50;;
25980;SDS011;13772;52.996;9.124;2022-08-01T14:08:13;5.43;;;1.10;;
25980;SDS011;13772;52.996;9.124;2022-08-01T14:10:38;12.68;;;1.77;;
25980;SDS011;13772;52.996;9.124;2022-08-01T14:13:04;6.80;;;1.33;;
25980;SDS011;13772;52.996;9.124;2022-08-01T14:15:30;7.22;;;1.38;;
25980;SDS011;13772;52.996;9.124;2022-08-01T14:17:55;7.95;;;1.55;;
25980;SDS011;13772;52.996;9.124;2022-08-01T14:20:20;8.60;;;1.73;;
25980;SDS011;13772;52.996;9.124;2022-08-01T14:22:46;4.97;;;1.50;;
25980;SDS011;13772;52.996;9.124;2022-08-01T14:25:11;5.68;;;1.10;;
25980;SDS011;13772;52.996;9.124;2022-08-01T14:27:36;7.55;;;1.67;;
25980;SDS011;13772;52.996;9.124;2022-08-01T14:30:03;8.40;;;1.50;;
25980;SDS011;13772;52.996;9.124;2022-08-01T14:32:28;10.02;;;1.58;;
25980;SDS011;13772;52.996;9.124;2022-08-01T14:34:53;6.45;;;1.55;;
25980;SDS011;13772;52.996;9.124;2022-08-01T14:37:19;6.70;;;1.48;;
25980;SDS011;13772;52.996;9.124;2022-08-01T14:39:44;5.67;;;1.50;;
25980;SDS011;13772;52.996;9.124;2022-08-01T14:42:09;10.67;;;1.87;;
25980;SDS011;13772;52.996;9.124;2022-08-01T14:44:34;10.83;;;1.80;;
25980;SDS011;13772;52.996;9.124;2022-08-01T14:46:59;8.20;;;1.73;;
25980;SDS011;13772;52.996;9.124;2022-08-01T14:49:25;5.83;;;1.73;;
25980;SDS011;13772;52.996;9.124;2022-08-01T14:51:50;9.93;;;1.83;;
25980;SDS011;13772;52.996;9.124;2022-08-01T14:54:15;8.77;;;1.77;;
25980;SDS011;13772;52.996;9.124;2022-08-01T14:56:40;7.73;;;1.20;;
25980;SDS011;13772;52.996;9.124;2022-08-01T14:59:06;14.57;;;1.60;;
25980;SDS011;13772;52.996;9.124;2022-08-01T15:01:31;6.40;;;1.53;;
25980;SDS011;13772;52.996;9.124;2022-08-01T15:03:56;8.30;;;1.50;;
25980;SDS011;13772;52.996;9.124;2022-08-01T15:06:21;6.87;;;1.70;;
25980;SDS011;13772;52.996;9.124;2022-08-01T15:08:47;11.32;;;1.95;;
25980;SDS011;13772;52.996;9.124;2022-08-01T15:11:12;9.68;;;1.77;;
25980;SDS011;13772;52.996;9.124;2022-08-01T15:13:37;7.85;;;1.70;;
25980;SDS011;13772;52.996;9.124;2022-08-01T15:16:03;6.47;;;1.20;;
25980;SDS011;13772;52.996;9.124;2022-08-01T15:18:28;6.95;;;1.88;;
25980;SDS011;13772;52.996;9.124;2022-08-01T15:20:53;7.93;;;1.53;;
25980;SDS011;13772;52.996;9.124;2022-08-01T15:23:19;7.70;;;1.50;;
25980;SDS011;13772;52.996;9.124;2022-08-01T15:25:44;6.07;;;1.50;;
25980;SDS011;13772;52.996;9.124;2022-08-01T15:28:09;8.98;;;1.83;;
25980;SDS011;13772;52.996;9.124;2022-08-01T15:30:34;6.15;;;1.60;;
25980;SDS011;13772;52.996;9.124;2022-08-01T15:33:00;8.93;;;1.90;;
25980;SDS011;13772;52.996;9.124;2022-08-01T15:35:25;9.13;;;1.63;;
25980;SDS011;13772;52.996;9.124;2022-08-01T15:37:50;6.10;;;1.60;;
25980;SDS011;13772;52.996;9.124;2022-08-01T15:40:15;9.03;;;1.70;;
25980;SDS011;13772;52.996;9.124;2022-08-01T15:42:40;9.55;;;1.58;;
25980;SDS011;13772;52.996;9.124;2022-08-01T15:45:06;8.53;;;1.40;;
25980;SDS011;13772;52.996;9.124;2022-08-01T15:47:32;7.65;;;1.92;;
25980;SDS011;13772;52.996;9.124;2022-08-01T15:49:57;8.10;;;1.67;;
25980;SDS011;13772;52.996;9.124;2022-08-01T15:52:24;6.47;;;1.48;;
25980;SDS011;13772;52.996;9.124;2022-08-01T15:54:50;6.95;;;1.60;;
25980;SDS011;13772;52.996;9.124;2022-08-01T15:57:15;5.03;;;1.50;;
25980;SDS011;13772;52.996;9.124;2022-08-01T15:59:40;8.77;;;1.52;;
25980;SDS011;13772;52.996;9.124;2022-08-01T16:02:05;8.98;;;2.15;;
25980;SDS011;13772;52.996;9.124;2022-08-01T16:04:31;7.17;;;1.50;;
25980;SDS011;13772;52.996;9.124;2022-08-01T16:06:56;8.68;;;1.63;;
25980;SDS011;13772;52.996;9.124;2022-08-01T16:09:21;14.65;;;2.20;;
25980;SDS011;13772;52.996;9.124;2022-08-01T16:11:46;8.10;;;1.80;;
25980;SDS011;13772;52.996;9.124;2022-08-01T16:14:11;9.98;;;1.70;;
25980;SDS011;13772;52.996;9.124;2022-08-01T16:16:37;8.02;;;1.70;;
25980;SDS011;13772;52.996;9.124;2022-08-01T16:19:02;8.73;;;1.95;;
25980;SDS011;13772;52.996;9.124;2022-08-01T16:21:29;8.38;;;1.85;;
25980;SDS011;13772;52.996;9.124;2022-08-01T16:23:54;10.10;;;1.70;;
25980;SDS011;13772;52.996;9.124;2022-08-01T16:26:19;7.90;;;1.70;;
25980;SDS011;13772;52.996;9.124;2022-08-01T16:28:45;5.72;;;1.52;;
25980;SDS011;13772;52.996;9.124;2022-08-01T16:31:12;6.70;;;1.65;;
25980;SDS011;13772;52.996;9.124;2022-08-01T16:33:37;5.13;;;1.35;;
25980;SDS011;13772;52.996;9.124;2022-08-01T16:36:03;11.65;;;1.85;;
25980;SDS011;13772;52.996;9.124;2022-08-01T16:38:28;6.18;;;1.40;;
25980;SDS011;13772;52.996;9.124;2022-08-01T16:40:53;8.65;;;1.95;;
25980;SDS011;13772;52.996;9.124;2022-08-01T16:43:19;6.78;;;1.65;;
25980;SDS011;13772;52.996;9.124;2022-08-01T16:45:45;8.23;;;1.85;;
25980;SDS011;13772;52.996;9.124;2022-08-01T16:48:11;9.25;;;1.77;;
25980;SDS011;13772;52.996;9.124;2022-08-01T16:50:36;9.60;;;1.77;;
25980;SDS011;13772;52.996;9.124;2022-08-01T16:53:01;6.80;;;2.08;;
25980;SDS011;13772;52.996;9.124;2022-08-01T16:55:27;7.75;;;1.80;;
25980;SDS011;13772;52.996;9.124;2022-08-01T16:57:52;8.43;;;1.92;;
25980;SDS011;13772;52.996;9.124;2022-08-01T17:00:17;11.13;;;1.80;;
25980;SDS011;13772;52.996;9.124;2022-08-01T17:02:45;10.95;;;3.38;;
25980;SDS011;13772;52.996;9.124;2022-08-01T17:05:11;9.88;;;2.17;;
25980;SDS011;13772;52.996;9.124;2022-08-01T17:07:36;9.48;;;1.92;;
25980;SDS011;13772;52.996;9.124;2022-08-01T17:10:02;11.85;;;2.08;;
25980;SDS011;13772;52.996;9.124;2022-08-01T17:12:28;10.57;;;2.30;;
25980;SDS011;13772;52.996;9.124;2022-08-01T17:14:53;7.72;;;1.70;;
25980;SDS011;13772;52.996;9.124;2022-08-01T17:17:18;9.77;;;2.03;;
25980;SDS011;13772;52.996;9.124;2022-08-01T17:19:44;7.45;;;1.83;;
25980;SDS011;13772;52.996;9.124;2022-08-01T17:22:09;6.45;;;1.90;;
25980;SDS011;13772;52.996;9.124;2022-08-01T17:24:34;9.70;;;2.00;;
25980;SDS011;13772;52.996;9.124;2022-08-01T17:26:59;10.48;;;2.15;;
25980;SDS011;13772;52.996;9.124;2022-08-01T17:29:24;11.02;;;1.95;;
25980;SDS011;13772;52.996;9.124;2022-08-01T17:31:51;7.80;;;1.80;;
25980;SDS011;13772;52.996;9.124;2022-08-01T17:34:16;10.88;;;2.05;;
25980;SDS011;13772;52.996;9.124;2022-08-01T17:36:42;8.60;;;1.80;;
25980;SDS011;13772;52.996;9.124;2022-08-01T17:39:07;9.20;;;2.07;;
25980;SDS011;13772;52.996;9.124;2022-08-01T17:41:33;9.20;;;2.00;;
25980;SDS011;13772;52.996;9.124;2022-08-01T17:43:59;9.27;;;2.05;;
25980;SDS011;13772;52.996;9.124;2022-08-01T17:46:24;9.30;;;2.00;;
25980;SDS011;13772;52.996;9.124;2022-08-01T17:48:49;7.63;;;1.50;;
25980;SDS011;13772;52.996;9.124;2022-08-01T17:51:14;7.90;;;1.95;;
25980;SDS011;13772;52.996;9.124;2022-08-01T17:53:39;10.73;;;1.83;;
25980;SDS011;13772;52.996;9.124;2022-08-01T17:56:05;8.80;;;1.45;;
25980;SDS011;13772;52.996;9.124;2022-08-01T17:58:30;8.30;;;1.73;;
25980;SDS011;13772;52.996;9.124;2022-08-01T18:00:55;9.65;;;1.85;;
25980;SDS011;13772;52.996;9.124;2022-08-01T18:03:21;11.88;;;2.30;;
25980;SDS011;13772;52.996;9.124;2022-08-01T18:05:46;7.93;;;1.85;;
25980;SDS011;13772;52.996;9.124;2022-08-01T18:08:11;8.73;;;1.67;;
25980;SDS011;13772;52.996;9.124;2022-08-01T18:10:36;12.00;;;1.67;;
25980;SDS011;13772;52.996;9.124;2022-08-01T18:13:01;8.20;;;2.00;;
25980;SDS011;13772;52.996;9.124;2022-08-01T18:15:28;10.25;;;1.70;;
25980;SDS011;13772;52.996;9.124;2022-08-01T18:17:53;7.47;;;1.58;;
25980;SDS011;13772;52.996;9.124;2022-08-01T18:20:18;8.48;;;1.60;;
25980;SDS011;13772;52.996;9.124;2022-08-01T18:22:44;10.05;;;1.85;;
25980;SDS011;13772;52.996;9.124;2022-08-01T18:25:09;9.48;;;2.22;;
25980;SDS011;13772;52.996;9.124;2022-08-01T18:27:35;10.75;;;2.17;;
25980;SDS011;13772;52.996;9.124;2022-08-01T18:30:00;10.35;;;1.38;;
25980;SDS011;13772;52.996;9.124;2022-08-01T18:32:26;7.80;;;1.38;;
25980;SDS011;13772;52.996;9.124;2022-08-01T18:34:51;4.72;;;1.60;;
25980;SDS011;13772;52.996;9.124;2022-08-01T18:37:16;8.35;;;2.40;;
25980;SDS011;13772;52.996;9.124;2022-08-01T18:39:41;12.98;;;2.50;;
25980;SDS011;13772;52.996;9.124;2022-08-01T18:42:07;9.38;;;2.10;;
25980;SDS011;13772;52.996;9.124;2022-08-01T18:44:32;8.38;;;2.00;;
25980;SDS011;13772;52.996;9.124;2022-08-01T18:46:57;11.10;;;2.25;;
25980;SDS011;13772;52.996;9.124;2022-08-01T18:49:22;4.45;;;1.55;;
25980;SDS011;13772;52.996;9.124;2022-08-01T18:51:48;9.63;;;2.38;;
25980;SDS011;13772;52.996;9.124;2022-08-01T18:54:13;7.90;;;1.58;;
25980;SDS011;13772;52.996;9.124;2022-08-01T18:56:39;8.25;;;1.70;;
25980;SDS011;13772;52.996;9.124;2022-08-01T18:59:04;7.13;;;2.20;;
25980;SDS011;13772;52.996;9.124;2022-08-01T19:01:30;6.80;;;1.95;;
25980;SDS011;13772;52.996;9.124;2022-08-01T19:03:55;9.82;;;2.17;;
25980;SDS011;13772;52.996;9.124;2022-08-01T19:06:20;9.77;;;2.00;;
25980;SDS011;13772;52.996;9.124;2022-08-01T19:08:46;6.85;;;2.15;;
25980;SDS011;13772;52.996;9.124;2022-08-01T19:11:11;8.93;;;2.03;;
25980;SDS011;13772;52.996;9.124;2022-08-01T19:13:36;10.40;;;1.98;;
25980;SDS011;13772;52.996;9.124;2022-08-01T19:16:02;8.98;;;2.22;;
25980;SDS011;13772;52.996;9.124;2022-08-01T19:18:28;8.93;;;2.15;;
25980;SDS011;13772;52.996;9.124;2022-08-01T19:20:53;7.50;;;2.25;;
25980;SDS011;13772;52.996;9.124;2022-08-01T19:23:18;5.97;;;1.92;;
25980;SDS011;13772;52.996;9.124;2022-08-01T19:26:03;10.20;;;2.08;;
25980;SDS011;13772;52.996;9.124;2022-08-01T19:28:29;8.45;;;2.22;;
25980;SDS011;13772;52.996;9.124;2022-08-01T19:30:57;7.67;;;2.17;;
25980;SDS011;13772;52.996;9.124;2022-08-01T19:33:24;8.10;;;2.00;;
25980;SDS011;13772;52.996;9.124;2022-08-01T19:35:51;12.40;;;2.38;;
25980;SDS011;13772;52.996;9.124;2022-08-01T19:38:16;6.00;;;2.13;;
25980;SDS011;13772;52.996;9.124;2022-08-01T19:40:42;7.47;;;2.17;;
25980;SDS011;13772;52.996;9.124;2022-08-01T19:43:08;9.07;;;2.13;;
25980;SDS011;13772;52.996;9.124;2022-08-01T19:45:34;7.82;;;2.33;;
25980;SDS011;13772;52.996;9.124;2022-08-01T19:47:59;10.13;;;2.88;;
25980;SDS011;13772;52.996;9.124;2022-08-01T19:50:27;7.28;;;2.22;;
25980;SDS011;13772;52.996;9.124;2022-08-01T19:52:54;11.65;;;2.47;;
25980;SDS011;13772;52.996;9.124;2022-08-01T19:55:19;9.57;;;2.30;;
25980;SDS011;13772;52.996;9.124;2022-08-01T19:57:45;10.70;;;2.10;;
25980;SDS011;13772;52.996;9.124;2022-08-01T20:00:11;9.82;;;2.03;;
25980;SDS011;13772;52.996;9.124;2022-08-01T20:02:36;10.63;;;2.55;;
25980;SDS011;13772;52.996;9.124;2022-08-01T20:05:03;13.80;;;2.40;;
25980;SDS011;13772;52.996;9.124;2022-08-01T20:07:28;9.65;;;2.15;;
25980;SDS011;13772;52.996;9.124;2022-08-01T20:09:54;9.55;;;2.15;;
25980;SDS011;13772;52.996;9.124;2022-08-01T20:12:20;9.85;;;2.70;;
25980;SDS011;13772;52.996;9.124;2022-08-01T20:14:45;12.85;;;2.60;;
25980;SDS011;13772;52.996;9.124;2022-08-01T20:17:13;9.45;;;2.33;;
25980;SDS011;13772;52.996;9.124;2022-08-01T20:19:39;8.52;;;2.20;;
25980;SDS011;13772;52.996;9.124;2022-08-01T20:22:04;9.55;;;2.10;;
25980;SDS011;13772;52.996;9.124;2022-08-01T20:24:35;8.55;;;1.95;;
25980;SDS011;13772;52.996;9.124;2022-08-01T20:27:01;8.32;;;2.28;;
25980;SDS011;13772;52.996;9.124;2022-08-01T20:29:27;10.25;;;2.38;;
25980;SDS011;13772;52.996;9.124;2022-08-01T20:31:52;9.15;;;2.28;;
25980;SDS011;13772;52.996;9.124;2022-08-01T20:34:19;14.35;;;2.72;;
25980;SDS011;13772;52.996;9.124;2022-08-01T20:36:45;9.10;;;2.13;;
25980;SDS011;13772;52.996;9.124;2022-08-01T20:39:11;6.95;;;1.90;;
25980;SDS011;13772;52.996;9.124;2022-08-01T20:41:36;7.10;;;2.30;;
25980;SDS011;13772;52.996;9.124;2022-08-01T20:44:02;10.10;;;2.30;;
25980;SDS011;13772;52.996;9.124;2022-08-01T20:46:28;8.65;;;2.08;;
25980;SDS011;13772;52.996;9.124;2022-08-01T20:48:54;9.88;;;2.20;;
25980;SDS011;13772;52.996;9.124;2022-08-01T20:51:24;13.57;;;2.50;;
25980;SDS011;13772;52.996;9.124;2022-08-01T20:53:49;10.07;;;2.40;;
25980;SDS011;13772;52.996;9.124;2022-08-01T20:56:22;9.93;;;2.80;;
25980;SDS011;13772;52.996;9.124;2022-08-01T20:58:53;10.43;;;2.75;;
25980;SDS011;13772;52.996;9.124;2022-08-01T21:01:22;9.55;;;2.20;;
25980;SDS011;13772;52.996;9.124;2022-08-01T21:03:53;5.57;;;1.92;;
25980;SDS011;13772;52.996;9.124;2022-08-01T21:06:21;10.50;;;2.50;;
25980;SDS011;13772;52.996;9.124;2022-08-01T21:08:49;11.15;;;2.38;;
25980;SDS011;13772;52.996;9.124;2022-08-01T21:11:19;13.07;;;2.28;;
25980;SDS011;13772;52.996;9.124;2022-08-01T21:13:45;9.85;;;2.50;;
25980;SDS011;13772;52.996;9.124;2022-08-01T21:16:12;9.32;;;2.72;;
25980;SDS011;13772;52.996;9.124;2022-08-01T21:18:39;7.38;;;2.28;;
25980;SDS011;13772;52.996;9.124;2022-08-01T21:21:08;14.68;;;2.75;;
25980;SDS011;13772;52.996;9.124;2022-08-01T21:23:38;8.65;;;2.83;;
25980;SDS011;13772;52.996;9.124;2022-08-01T21:26:04;11.88;;;2.22;;
25980;SDS011;13772;52.996;9.124;2022-08-01T21:28:30;9.02;;;2.55;;
25980;SDS011;13772;52.996;9.124;2022-08-01T21:30:57;9.75;;;2.60;;
25980;SDS011;13772;52.996;9.124;2022-08-01T21:33:24;10.77;;;2.67;;
25980;SDS011;13772;52.996;9.124;2022-08-01T21:35:50;8.40;;;2.28;;
25980;SDS011;13772;52.996;9.124;2022-08-01T21:38:19;7.65;;;2.30;;
25980;SDS011;13772;52.996;9.124;2022-08-01T21:40:45;12.82;;;2.50;;
25980;SDS011;13772;52.996;9.124;2022-08-01T21:43:10;9.75;;;2.63;;
25980;SDS011;13772;52.996;9.124;2022-08-01T21:45:35;8.10;;;2.20;;
25980;SDS011;13772;52.996;9.124;2022-08-01T21:48:01;6.85;;;2.30;;
25980;SDS011;13772;52.996;9.124;2022-08-01T21:50:28;9.35;;;2.60;;
25980;SDS011;13772;52.996;9.124;2022-08-01T21:55:24;11.18;;;2.88;;
